createdAt,value
2022-10-12T00:04:50.368Z,1.15
2022-10-12T00:09:52.464Z,0.90
2022-10-12T00:14:54.329Z,1.05
2022-10-12T00:19:56.182Z,1.20
2022-10-12T00:24:58.022Z,1.13
2022-10-12T00:29:59.911Z,0.93
2022-10-12T00:35:01.954Z,0.75
2022-10-12T00:40:04.417Z,1.10
2022-10-12T00:45:06.913Z,0.88
2022-10-12T00:50:14.890Z,1.13
2022-10-12T01:00:22.678Z,0.93
2022-10-12T01:05:25.202Z,1.13
2022-10-12T01:10:27.087Z,0.90
2022-10-12T01:15:34.501Z,1.15
2022-10-12T01:20:42.484Z,1.08
2022-10-12T01:31:20.922Z,1.25
2022-10-12T01:36:33.226Z,1.25
2022-10-12T01:41:39.897Z,1.05
2022-10-12T01:46:43.881Z,0.82
2022-10-12T01:52:07.389Z,0.70
2022-10-12T01:57:15.676Z,1.00
2022-10-12T02:02:40.184Z,0.90
2022-10-12T02:08:08.523Z,0.88
2022-10-12T02:13:13.742Z,2.08
2022-10-12T02:18:19.035Z,0.93
2022-10-12T02:23:24.562Z,0.93
2022-10-12T02:28:29.873Z,1.42
2022-10-12T02:33:37.503Z,0.85
2022-10-12T02:38:53.013Z,1.17
2022-10-12T02:43:59.898Z,1.00
2022-10-12T02:49:04.540Z,0.95
2022-10-12T02:54:06.682Z,1.00
2022-10-12T02:59:08.506Z,0.75
2022-10-12T03:04:10.557Z,0.90
2022-10-12T03:09:12.482Z,1.05
2022-10-12T03:14:15.392Z,1.52
2022-10-12T03:19:17.220Z,1.00
2022-10-12T03:24:19.308Z,1.23
2022-10-12T03:29:21.135Z,0.93
2022-10-12T03:34:23.076Z,1.40
2022-10-12T03:39:24.983Z,1.23
2022-10-12T03:44:27.052Z,1.67
2022-10-12T03:49:29.232Z,1.10
2022-10-12T03:54:31.056Z,1.17
2022-10-12T03:59:33.126Z,1.00
2022-10-12T04:04:35.602Z,1.35
2022-10-12T04:09:37.470Z,1.40
2022-10-12T04:14:39.392Z,0.90
2022-10-12T04:19:41.302Z,0.98
2022-10-12T04:24:43.958Z,1.92
2022-10-12T04:29:45.894Z,2.40
2022-10-12T04:34:47.902Z,1.35
2022-10-12T04:39:50.010Z,2.38
2022-10-12T04:44:51.987Z,1.42
2022-10-12T04:49:53.807Z,1.80
2022-10-12T04:54:55.719Z,1.35
2022-10-12T04:59:57.661Z,1.02
2022-10-12T05:04:59.612Z,1.45
2022-10-12T05:10:01.485Z,1.08
2022-10-12T05:15:03.504Z,0.80
2022-10-12T05:20:06.084Z,1.02
2022-10-12T05:25:08.893Z,1.10
2022-10-12T05:30:11.380Z,1.55
2022-10-12T05:35:13.243Z,2.90
2022-10-12T05:40:15.269Z,6.63
2022-10-12T05:45:17.228Z,8.13
2022-10-12T05:50:19.222Z,8.50
2022-10-12T05:55:21.220Z,10.93
2022-10-12T06:00:23.302Z,8.73
2022-10-12T06:05:25.770Z,5.93
2022-10-12T06:10:29.952Z,7.43
2022-10-12T06:15:32.283Z,4.53
2022-10-12T06:20:34.384Z,2.75
2022-10-12T06:25:36.291Z,2.78
2022-10-12T06:30:38.426Z,1.60
2022-10-12T06:35:40.200Z,2.35
2022-10-12T06:40:42.501Z,1.42
2022-10-12T06:45:44.353Z,1.75
2022-10-12T06:50:47.281Z,1.10
2022-10-12T06:55:49.472Z,1.00
2022-10-12T07:00:52.451Z,1.02
2022-10-12T07:05:54.517Z,1.20
2022-10-12T07:11:05.202Z,1.17
2022-10-12T07:16:08.190Z,1.08
2022-10-12T07:21:10.136Z,1.10
2022-10-12T07:26:12.192Z,1.08
2022-10-12T07:31:14.976Z,1.15
2022-10-12T07:36:21.558Z,1.40
2022-10-12T07:41:24.022Z,1.47
2022-10-12T07:46:26.115Z,1.10
2022-10-12T07:51:27.988Z,1.52
2022-10-12T07:56:31.688Z,1.80
2022-10-12T08:01:34.897Z,1.45
2022-10-12T08:06:37.183Z,1.20
2022-10-12T08:11:40.816Z,0.90
2022-10-12T08:16:44.310Z,0.88
2022-10-12T08:21:46.384Z,1.10
2022-10-12T08:26:48.391Z,1.55
2022-10-12T08:31:51.560Z,1.75
2022-10-12T08:36:53.600Z,1.33
2022-10-12T08:42:02.058Z,1.35
2022-10-12T08:47:38.877Z,1.23
2022-10-12T08:52:56.979Z,1.58
2022-10-12T08:57:59.010Z,1.35
2022-10-12T09:03:03.822Z,1.30
2022-10-12T09:08:23.943Z,1.50
2022-10-12T09:13:28.800Z,1.58
2022-10-12T09:18:37.072Z,1.33
2022-10-12T09:23:42.726Z,1.05
2022-10-12T09:29:20.392Z,1.13
2022-10-12T09:34:24.675Z,1.45
2022-10-12T09:39:34.010Z,1.17
2022-10-12T09:44:40.337Z,1.65
2022-10-12T09:49:43.385Z,1.83
2022-10-12T09:55:16.361Z,1.63
2022-10-12T10:00:36.090Z,1.63
2022-10-12T10:05:39.203Z,1.13
2022-10-12T10:10:56.511Z,1.45
2022-10-12T10:16:05.940Z,1.43
2022-10-12T10:21:13.272Z,1.20
2022-10-12T10:31:29.631Z,1.60
2022-10-12T10:36:34.697Z,2.03
2022-10-12T10:41:39.684Z,2.28
2022-10-12T10:46:45.160Z,1.80
2022-10-12T10:51:51.704Z,1.52
2022-10-12T10:56:59.136Z,2.00
2022-10-12T11:02:10.135Z,1.55
2022-10-12T11:07:42.609Z,1.48
2022-10-12T11:12:49.885Z,2.33
2022-10-12T11:18:03.654Z,1.67
2022-10-12T11:23:19.391Z,1.30
2022-10-12T11:28:22.886Z,1.75
2022-10-12T11:33:38.615Z,1.35
2022-10-12T11:38:44.920Z,1.42
2022-10-12T11:43:52.883Z,1.65
2022-10-12T11:49:29.321Z,1.60
2022-10-12T11:54:40.148Z,1.83
2022-10-12T11:59:41.906Z,1.88
2022-10-12T12:04:47.207Z,1.23
2022-10-12T12:09:51.019Z,1.58
2022-10-12T12:14:53.414Z,2.10
2022-10-12T12:20:01.068Z,3.45
2022-10-12T12:25:10.806Z,1.50
2022-10-12T12:30:18.361Z,1.52
2022-10-12T12:35:32.231Z,1.85
2022-10-12T12:40:35.322Z,1.67
2022-10-12T12:45:56.543Z,2.25
2022-10-12T12:51:01.799Z,1.60
2022-10-12T12:56:24.122Z,1.20
2022-10-12T13:02:11.037Z,1.38
2022-10-12T13:07:15.583Z,1.48
2022-10-12T13:12:35.577Z,1.83
2022-10-12T13:17:59.491Z,1.45
2022-10-12T13:23:06.259Z,1.63
2022-10-12T13:28:41.296Z,1.65
2022-10-12T13:33:56.617Z,1.60
2022-10-12T13:39:20.746Z,1.77
2022-10-12T13:44:31.061Z,1.60
2022-10-12T13:49:43.688Z,1.70
2022-10-12T13:54:48.748Z,2.47
2022-10-12T13:59:57.723Z,1.77
2022-10-12T14:05:02.698Z,1.42
2022-10-12T14:10:16.471Z,2.28
2022-10-12T14:15:19.795Z,2.22
2022-10-12T14:20:31.131Z,2.20
2022-10-12T14:25:33.369Z,2.67
2022-10-12T14:30:40.950Z,1.92
2022-10-12T14:35:47.966Z,2.10
2022-10-12T14:40:49.804Z,2.00
2022-10-12T14:45:52.156Z,2.03
2022-10-12T14:50:54.362Z,2.45
2022-10-12T14:55:56.284Z,2.97
2022-10-12T15:00:58.440Z,2.38
2022-10-12T15:06:00.423Z,2.65
2022-10-12T15:11:02.263Z,2.15
2022-10-12T15:16:10.325Z,2.47
2022-10-12T15:21:12.221Z,2.20
2022-10-12T15:26:16.781Z,2.35
2022-10-12T15:31:19.302Z,3.03
2022-10-12T15:36:21.252Z,2.47
2022-10-12T15:41:27.178Z,2.15
2022-10-12T15:46:29.063Z,3.22
2022-10-12T15:51:34.411Z,3.95
2022-10-12T15:56:36.861Z,3.95
2022-10-12T16:01:40.001Z,4.15
2022-10-12T16:06:41.945Z,3.22
2022-10-12T16:11:43.831Z,2.97
2022-10-12T16:16:45.752Z,2.38
2022-10-12T16:21:47.596Z,3.45
2022-10-12T16:26:50.064Z,3.35
2022-10-12T16:31:51.984Z,2.70
2022-10-12T16:36:53.956Z,2.88
2022-10-12T16:41:55.890Z,4.43
2022-10-12T16:46:58.351Z,4.15
2022-10-12T16:52:00.336Z,4.75
2022-10-12T16:57:02.330Z,4.65
2022-10-12T17:02:05.200Z,5.13
2022-10-12T17:07:07.241Z,4.32
2022-10-12T17:12:09.371Z,4.07
2022-10-12T17:17:11.394Z,4.28
2022-10-12T17:22:14.561Z,4.35
2022-10-12T17:27:17.067Z,3.75
2022-10-12T17:32:19.363Z,4.57
2022-10-12T17:37:22.047Z,5.90
2022-10-12T17:42:24.915Z,4.38
2022-10-12T17:47:26.738Z,4.35
2022-10-12T17:52:28.615Z,3.60
2022-10-12T17:57:30.513Z,3.35
2022-10-12T18:02:32.334Z,3.92
2022-10-12T18:07:34.171Z,3.30
2022-10-12T18:12:36.021Z,3.53
2022-10-12T18:17:37.903Z,3.00
2022-10-12T18:22:39.686Z,3.15
2022-10-12T18:27:42.243Z,2.88
2022-10-12T18:32:44.332Z,3.70
2022-10-12T18:37:46.167Z,3.70
2022-10-12T18:42:48.152Z,3.97
2022-10-12T18:47:50.084Z,4.00
2022-10-12T18:52:54.682Z,3.45
2022-10-12T18:57:56.502Z,3.80
2022-10-12T19:02:58.577Z,3.70
2022-10-12T19:08:00.382Z,3.28
2022-10-12T19:13:02.212Z,4.03
2022-10-12T19:18:04.945Z,3.50
2022-10-12T19:23:06.811Z,4.25
2022-10-12T19:28:08.662Z,4.03
2022-10-12T19:33:10.636Z,3.05
2022-10-12T19:38:12.927Z,3.67
2022-10-12T19:43:14.745Z,3.70
2022-10-12T19:48:17.911Z,4.22
2022-10-12T19:53:19.736Z,3.72
2022-10-12T19:58:21.706Z,3.85
2022-10-12T20:03:23.423Z,3.15
2022-10-12T20:08:25.494Z,3.30
2022-10-12T20:13:29.351Z,3.72
2022-10-12T20:18:31.897Z,4.78
2022-10-12T20:23:38.898Z,5.40
2022-10-12T20:28:41.785Z,4.37
2022-10-12T20:33:44.340Z,5.05
2022-10-12T20:38:46.062Z,4.53
2022-10-12T20:43:48.397Z,3.75
2022-10-12T20:48:52.537Z,3.35
2022-10-12T20:54:01.596Z,3.95
2022-10-12T20:59:03.451Z,4.30
2022-10-12T21:04:05.267Z,3.85
2022-10-12T21:09:07.355Z,3.90
2022-10-12T21:14:12.232Z,4.28
2022-10-12T21:19:15.943Z,3.75
2022-10-12T21:24:18.386Z,3.78
2022-10-12T21:29:20.543Z,4.53
2022-10-12T21:34:22.577Z,4.30
2022-10-12T21:39:24.411Z,4.10
2022-10-12T21:44:26.241Z,4.22
2022-10-12T21:49:28.070Z,3.30
2022-10-12T21:54:29.873Z,4.10
2022-10-12T21:59:31.690Z,3.53
2022-10-12T22:04:33.481Z,3.88
2022-10-12T22:09:35.679Z,3.38
2022-10-12T22:14:37.467Z,4.30
2022-10-12T22:19:39.421Z,3.80
2022-10-12T22:24:41.213Z,3.80
2022-10-12T22:29:43.109Z,4.18
2022-10-12T22:34:44.949Z,3.60
2022-10-12T22:39:47.012Z,3.85
2022-10-12T22:44:48.795Z,3.80
2022-10-12T22:49:50.556Z,4.20
2022-10-12T22:54:52.654Z,3.50
2022-10-12T22:59:54.491Z,4.13
2022-10-12T23:04:56.513Z,3.80
2022-10-12T23:09:58.278Z,4.20
2022-10-12T23:15:00.162Z,3.63
2022-10-12T23:20:02.116Z,4.15
2022-10-12T23:25:04.163Z,3.55
2022-10-12T23:30:06.648Z,3.58
2022-10-12T23:35:08.544Z,3.88
2022-10-12T23:40:10.964Z,4.30
2022-10-12T23:45:12.741Z,3.97
2022-10-12T23:50:14.647Z,3.75
2022-10-12T23:55:16.615Z,3.15
